Aviation Digital Data Service (ADDS)

Output produced by METARs form (1331 UTC 26 May 2018)
found at http://www.aviationweather.gov/adds/metars/
 
MBGT 261030Z 2612/2712 10015G25KT 9999 SCT020 BKN200
       
MBPV 261030Z 2612/2712 10015G25KT 9999 SCT020 BKN200